Time;durP1;ratioP1;P1;durP2;ratioP2;P2;SDS_P1;SDS_P2;PMS_P1;PMS_P2;Temp;Humidity;BMP_temperature;BMP_pressure;BME280_temperature;BME280_humidity;BME280_pressure;Samples;Min_cycle;Max_cycle;Signal;HPM_P1;HPM_P2
2021/12/29 00:00:54;;;;;;;87.80;20.83;;;5.30;99.90;;;;;;6244017;23;20024;-84
2021/12/29 00:03:26;;;;;;;109.82;25.90;;;5.30;99.90;;;;;;6243988;23;20130;-85
2021/12/29 00:05:51;;;;;;;131.75;29.30;;;5.40;99.90;;;;;;6243397;23;20062;-85
2021/12/29 00:08:17;;;;;;;141.43;29.33;;;5.40;99.90;;;;;;6243535;23;20535;-85
2021/12/29 00:10:53;;;;;;;101.80;24.92;;;5.40;99.90;;;;;;6243997;23;20027;-85
2021/12/29 00:13:20;;;;;;;102.47;25.67;;;5.40;99.90;;;;;;6218749;23;20024;-85
2021/12/29 00:15:56;;;;;;;119.47;27.92;;;5.40;99.90;;;;;;6243907;23;20050;-85
2021/12/29 00:18:27;;;;;;;114.20;27.50;;;5.40;99.90;;;;;;6218902;23;20020;-84
2021/12/29 00:20:53;;;;;;;115.43;28.73;;;5.40;99.90;;;;;;6244139;23;20031;-85
2021/12/29 00:23:19;;;;;;;105.97;27.95;;;5.40;99.90;;;;;;6243048;23;20020;-85
2021/12/29 00:25:45;;;;;;;136.40;32.13;;;5.40;99.90;;;;;;6218023;23;20085;-85
2021/12/29 00:28:17;;;;;;;105.03;28.77;;;5.30;99.90;;;;;;6220216;23;20028;-84
2021/12/29 00:30:43;;;;;;;79.82;26.23;;;5.40;99.90;;;;;;6243870;23;20483;-85
2021/12/29 00:33:10;;;;;;;65.45;21.42;;;5.40;99.90;;;;;;6219097;23;20047;-85
2021/12/29 00:35:38;;;;;;;71.38;21.92;;;5.50;99.90;;;;;;6246245;23;20028;-86
2021/12/29 00:38:06;;;;;;;72.68;23.92;;;5.60;99.90;;;;;;6249021;23;20031;-84
2021/12/29 00:40:34;;;;;;;83.40;25.58;;;5.70;99.90;;;;;;6222635;23;20055;-84
2021/12/29 00:43:00;;;;;;;85.15;24.52;;;5.80;99.90;;;;;;6243163;23;20023;-84
2021/12/29 00:45:27;;;;;;;61.13;21.13;;;5.80;99.90;;;;;;6243974;23;20370;-84
2021/12/29 00:47:53;;;;;;;65.90;22.30;;;5.90;99.90;;;;;;6244138;23;20422;-84
2021/12/29 00:50:19;;;;;;;71.22;24.30;;;5.90;99.90;;;;;;6218802;23;20055;-84
2021/12/29 00:52:46;;;;;;;81.43;24.80;;;6.00;99.90;;;;;;6244215;23;20031;-84
2021/12/29 00:55:17;;;;;;;75.25;22.98;;;6.00;99.90;;;;;;6242357;23;20107;-84
2021/12/29 00:57:44;;;;;;;85.10;24.60;;;6.00;99.90;;;;;;6217049;23;20191;-85
2021/12/29 01:00:14;;;;;;;74.35;23.50;;;6.00;99.90;;;;;;6242903;23;20367;-85
2021/12/29 01:02:41;;;;;;;104.57;28.45;;;6.00;99.90;;;;;;6242574;23;20028;-83
2021/12/29 01:05:09;;;;;;;79.90;25.30;;;6.00;99.90;;;;;;6242368;23;20020;-85
2021/12/29 01:07:35;;;;;;;80.68;25.92;;;6.00;99.90;;;;;;6243770;23;20178;-83
2021/12/29 01:10:03;;;;;;;100.63;29.30;;;6.00;99.90;;;;;;6243621;23;20028;-84
2021/12/29 01:12:35;;;;;;;103.55;29.23;;;6.00;99.90;;;;;;6243257;23;20488;-84
2021/12/29 01:15:02;;;;;;;122.57;29.98;;;5.90;99.90;;;;;;6243117;23;20035;-84
2021/12/29 01:17:28;;;;;;;94.78;27.65;;;5.80;99.90;;;;;;6217945;23;20027;-84
2021/12/29 01:19:55;;;;;;;103.80;28.15;;;5.70;99.90;;;;;;6242959;23;20052;-84
2021/12/29 01:22:22;;;;;;;117.43;28.98;;;5.50;99.90;;;;;;6242565;23;20028;-84
2021/12/29 01:24:48;;;;;;;130.90;28.95;;;5.50;99.90;;;;;;6216797;23;20452;-84
2021/12/29 01:27:16;;;;;;;119.28;26.17;;;5.50;99.90;;;;;;6218326;23;20161;-84
2021/12/29 01:29:42;;;;;;;139.23;27.27;;;5.50;99.90;;;;;;6218269;23;20031;-84
2021/12/29 01:32:09;;;;;;;204.80;29.40;;;5.50;99.90;;;;;;6245535;23;20349;-85
2021/12/29 01:34:35;;;;;;;170.57;27.60;;;5.50;99.90;;;;;;6222754;23;20030;-86
2021/12/29 01:37:02;;;;;;;161.55;27.52;;;5.60;99.90;;;;;;6250255;23;20111;-85
2021/12/29 01:39:28;;;;;;;161.57;26.48;;;5.60;99.90;;;;;;6245267;23;20100;-84
2021/12/29 01:41:57;;;;;;;317.08;39.25;;;5.60;99.90;;;;;;6243302;23;20066;-84
2021/12/29 01:44:26;;;;;;;279.45;36.88;;;5.70;99.90;;;;;;6243301;23;20024;-84
2021/12/29 01:46:55;;;;;;;255.10;34.00;;;5.60;99.90;;;;;;6243003;23;20059;-85
2021/12/29 01:49:20;;;;;;;297.85;35.78;;;5.60;99.90;;;;;;6242245;23;20023;-85
2021/12/29 01:51:59;;;;;;;287.13;38.75;;;5.70;99.90;;;;;;6242223;23;20093;-84
2021/12/29 01:54:25;;;;;;;327.50;41.63;;;5.60;99.90;;;;;;6242578;23;20094;-84
2021/12/29 01:56:57;;;;;;;281.13;38.10;;;5.70;99.90;;;;;;6242650;23;20395;-83
2021/12/29 01:59:24;;;;;;;228.57;33.60;;;5.70;99.90;;;;;;6242736;23;20020;-84
2021/12/29 02:01:53;;;;;;;299.92;37.08;;;5.70;99.90;;;;;;6217758;23;20082;-84
2021/12/29 02:04:19;;;;;;;235.43;30.27;;;5.70;99.90;;;;;;6216984;23;20020;-84
2021/12/29 02:06:47;;;;;;;325.98;34.00;;;5.80;99.90;;;;;;6243440;23;20167;-84
2021/12/29 02:09:14;;;;;;;285.17;30.75;;;5.80;99.90;;;;;;6244599;23;20009;-84
2021/12/29 02:11:42;;;;;;;309.05;30.52;;;5.80;99.90;;;;;;6244225;22;20035;-83
2021/12/29 02:14:09;;;;;;;151.88;23.20;;;5.80;99.90;;;;;;6217746;23;20048;-83
2021/12/29 02:16:38;;;;;;;130.48;23.77;;;5.80;99.90;;;;;;6242837;23;20020;-84
2021/12/29 02:19:08;;;;;;;110.47;25.77;;;5.90;99.90;;;;;;6217910;23;20023;-83
2021/12/29 02:21:34;;;;;;;108.25;25.92;;;6.00;99.90;;;;;;6217634;23;20023;-84
2021/12/29 02:26:29;;;;;;;119.93;26.23;;;6.10;99.90;;;;;;6243955;23;20027;-84
2021/12/29 02:28:56;;;;;;;106.97;24.13;;;6.10;99.90;;;;;;6243987;23;20382;-85
2021/12/29 02:31:25;;;;;;;132.98;27.38;;;6.10;99.90;;;;;;6242469;23;20055;-85
2021/12/29 02:33:52;;;;;;;145.25;28.17;;;6.10;99.90;;;;;;6247315;23;20035;-86
2021/12/29 02:36:19;;;;;;;112.95;25.90;;;6.10;99.90;;;;;;6218554;23;20103;-85
2021/12/29 02:38:50;;;;;;;130.45;27.88;;;6.00;99.90;;;;;;6243577;23;20024;-87
2021/12/29 02:41:16;;;;;;;136.40;29.65;;;6.00;99.90;;;;;;6217688;23;20030;-86
2021/12/29 02:43:43;;;;;;;122.63;26.08;;;5.90;99.90;;;;;;6242935;23;20024;-86
2021/12/29 02:46:13;;;;;;;131.93;27.92;;;5.90;99.90;;;;;;6242705;23;20364;-85
2021/12/29 02:48:52;;;;;;;119.13;25.10;;;5.90;99.90;;;;;;6217675;23;20020;-83
2021/12/29 02:51:18;;;;;;;107.35;25.48;;;6.00;99.90;;;;;;6243037;23;20047;-84
2021/12/29 02:53:44;;;;;;;99.80;24.63;;;6.00;99.90;;;;;;6242721;23;20016;-85
2021/12/29 02:56:16;;;;;;;116.32;25.65;;;6.00;99.90;;;;;;6217547;23;20028;-85
2021/12/29 02:58:42;;;;;;;102.35;24.17;;;6.00;99.90;;;;;;6243162;23;20351;-85
2021/12/29 03:01:11;;;;;;;104.97;25.48;;;6.00;99.90;;;;;;6242485;23;20051;-85
2021/12/29 03:03:37;;;;;;;123.63;26.95;;;6.00;99.90;;;;;;6217017;23;20025;-84
2021/12/29 03:06:07;;;;;;;100.47;24.77;;;6.00;99.90;;;;;;6242740;23;20038;-84
2021/12/29 03:08:34;;;;;;;105.53;25.23;;;5.90;99.90;;;;;;6242258;23;20020;-84
2021/12/29 03:11:03;;;;;;;103.32;24.92;;;5.90;99.90;;;;;;6217722;23;20399;-84
2021/12/29 03:13:32;;;;;;;118.13;25.50;;;5.80;99.90;;;;;;6217246;23;20103;-84
2021/12/29 03:16:01;;;;;;;129.30;25.92;;;5.80;99.90;;;;;;6219432;23;20020;-84
2021/12/29 03:18:28;;;;;;;192.75;30.05;;;5.70;99.90;;;;;;6220913;23;20020;-85
2021/12/29 03:20:54;;;;;;;233.75;32.88;;;5.80;99.90;;;;;;6249067;23;20055;-84
2021/12/29 03:23:20;;;;;;;278.23;31.98;;;5.70;99.90;;;;;;6249756;23;20031;-84
2021/12/29 03:25:51;;;;;;;237.30;31.63;;;5.70;99.90;;;;;;6250980;23;20059;-84
2021/12/29 03:28:20;;;;;;;244.23;32.35;;;5.70;99.90;;;;;;6219164;23;20099;-84
2021/12/29 03:30:50;;;;;;;310.55;33.30;;;5.70;99.90;;;;;;6244987;23;20471;-84
2021/12/29 03:33:16;;;;;;;280.88;33.15;;;5.70;99.90;;;;;;6243880;23;20026;-83
2021/12/29 03:35:45;;;;;;;287.05;31.52;;;5.70;99.90;;;;;;6244174;23;20023;-83
2021/12/29 03:38:15;;;;;;;265.33;28.27;;;5.80;99.90;;;;;;6246141;22;20028;-84
2021/12/29 03:40:42;;;;;;;245.75;29.60;;;5.80;99.90;;;;;;6219038;23;20024;-84
2021/12/29 03:43:10;;;;;;;219.68;29.23;;;5.80;99.90;;;;;;6244684;23;20024;-86
2021/12/29 03:45:39;;;;;;;202.93;27.38;;;5.80;99.90;;;;;;6245312;23;20024;-84
2021/12/29 03:48:08;;;;;;;111.38;21.75;;;5.80;99.90;;;;;;6244762;23;20137;-85
2021/12/29 03:50:35;;;;;;;123.07;23.65;;;5.80;99.90;;;;;;6244758;23;20020;-85
2021/12/29 03:53:01;;;;;;;170.50;27.30;;;5.80;99.90;;;;;;6244397;23;20028;-85
2021/12/29 03:55:27;;;;;;;121.88;23.58;;;5.80;99.90;;;;;;6244623;23;20032;-85
2021/12/29 03:57:53;;;;;;;163.38;26.10;;;5.70;99.90;;;;;;6244105;23;20468;-85
2021/12/29 04:00:20;;;;;;;117.97;25.00;;;5.80;99.90;;;;;;6218713;23;20031;-85
2021/12/29 04:02:47;;;;;;;88.30;22.48;;;5.80;99.90;;;;;;6243852;23;20459;-85
2021/12/29 04:05:15;;;;;;;97.28;24.88;;;5.80;99.90;;;;;;6243791;23;20024;-85
2021/12/29 04:08:02;;;;;;;96.47;25.05;;;5.90;99.90;;;;;;6244643;23;20026;-85
2021/12/29 04:10:28;;;;;;;105.20;25.33;;;6.00;99.90;;;;;;6218692;23;20020;-85
2021/12/29 04:12:53;;;;;;;120.47;27.95;;;6.00;99.90;;;;;;6244216;23;20027;-85
2021/12/29 04:15:19;;;;;;;139.55;28.35;;;6.00;99.90;;;;;;6245249;23;20024;-86
2021/12/29 04:17:46;;;;;;;95.55;23.95;;;6.00;99.90;;;;;;6250979;23;20051;-84
2021/12/29 04:23:07;;;;;;;104.00;26.55;;;5.90;99.90;;;;;;6243880;23;20028;-84
2021/12/29 04:25:36;;;;;;;125.03;28.13;;;5.90;99.90;;;;;;6243605;23;20460;-84
2021/12/29 04:28:04;;;;;;;97.88;25.13;;;6.00;99.90;;;;;;6243710;23;20024;-83
2021/12/29 04:30:32;;;;;;;97.80;25.27;;;6.00;99.90;;;;;;6245484;22;20023;-83
2021/12/29 04:32:57;;;;;;;86.32;24.38;;;6.00;99.90;;;;;;6243863;23;20020;-84
2021/12/29 04:35:24;;;;;;;91.85;24.52;;;6.10;99.90;;;;;;6243883;23;20343;-85
2021/12/29 04:37:51;;;;;;;147.27;29.83;;;6.10;99.90;;;;;;6218442;23;20024;-86
2021/12/29 04:40:18;;;;;;;108.68;26.23;;;6.10;99.90;;;;;;6244108;23;20053;-85
2021/12/29 04:42:44;;;;;;;81.70;22.05;;;6.10;99.90;;;;;;6243717;23;20021;-85
2021/12/29 04:45:10;;;;;;;105.00;25.08;;;6.10;99.90;;;;;;6243842;23;20082;-84
2021/12/29 04:47:40;;;;;;;115.82;27.85;;;6.20;99.90;;;;;;6243891;23;20024;-84
2021/12/29 04:50:26;;;;;;;117.10;27.40;;;6.30;99.90;;;;;;6243595;23;20028;-85
2021/12/29 04:52:54;;;;;;;99.85;26.38;;;6.30;99.90;;;;;;6218333;23;20047;-85
2021/12/29 04:55:22;;;;;;;87.05;24.23;;;6.20;99.90;;;;;;6243884;23;20332;-84
2021/12/29 04:57:48;;;;;;;92.88;25.65;;;6.20;99.90;;;;;;6246744;23;20020;-84
2021/12/29 05:00:15;;;;;;;92.78;24.25;;;6.20;99.90;;;;;;6244453;23;20025;-83
2021/12/29 05:02:42;;;;;;;118.53;28.38;;;6.20;99.90;;;;;;6217345;23;20028;-83
2021/12/29 05:05:20;;;;;;;100.75;25.67;;;6.10;99.90;;;;;;6218383;23;20103;-83
2021/12/29 05:10:43;;;;;;;118.85;25.83;;;6.10;99.90;;;;;;6245205;22;20024;-83
2021/12/29 05:13:09;;;;;;;116.00;27.20;;;6.10;99.90;;;;;;6243605;23;20016;-83
2021/12/29 05:15:35;;;;;;;121.30;26.67;;;6.10;99.90;;;;;;6217684;23;20479;-83
2021/12/29 05:18:01;;;;;;;192.90;31.85;;;6.10;99.90;;;;;;6245556;23;20020;-83
2021/12/29 05:20:28;;;;;;;106.15;22.27;;;6.10;99.90;;;;;;6243383;23;20038;-83
2021/12/29 05:22:55;;;;;;;129.55;25.17;;;6.10;99.90;;;;;;6243676;23;20020;-84
2021/12/29 05:25:21;;;;;;;126.20;26.13;;;6.10;99.90;;;;;;6243581;23;20081;-84
2021/12/29 05:27:48;;;;;;;127.97;23.98;;;6.10;99.90;;;;;;6243257;23;20027;-85
2021/12/29 05:30:13;;;;;;;113.53;22.77;;;6.00;99.90;;;;;;6217988;23;20020;-83
2021/12/29 05:32:39;;;;;;;147.55;24.98;;;6.00;99.90;;;;;;6243147;23;20024;-83
2021/12/29 05:35:06;;;;;;;131.93;24.20;;;6.00;99.90;;;;;;6217836;23;20028;-84
2021/12/29 05:37:32;;;;;;;142.77;25.40;;;5.90;99.90;;;;;;6243005;23;20547;-84
2021/12/29 05:39:58;;;;;;;144.80;24.55;;;5.90;99.90;;;;;;6217983;23;20044;-84
2021/12/29 05:42:23;;;;;;;177.02;25.02;;;6.00;99.90;;;;;;6243998;23;20383;-85
2021/12/29 05:44:49;;;;;;;185.13;27.42;;;6.00;99.90;;;;;;6218458;23;20487;-84
2021/12/29 05:47:15;;;;;;;200.48;25.95;;;6.00;99.90;;;;;;6248524;23;20107;-85
2021/12/29 05:49:41;;;;;;;140.80;23.38;;;6.00;99.90;;;;;;6250252;23;20028;-86
2021/12/29 05:52:07;;;;;;;146.13;24.60;;;6.00;99.90;;;;;;6225275;23;20023;-85
2021/12/29 05:54:32;;;;;;;147.55;23.92;;;6.00;99.90;;;;;;6243283;23;20463;-84
2021/12/29 05:56:59;;;;;;;116.00;26.15;;;6.00;99.90;;;;;;6217692;23;20051;-84
2021/12/29 05:59:25;;;;;;;102.05;21.23;;;6.00;99.90;;;;;;6243095;23;20016;-85
2021/12/29 06:01:53;;;;;;;135.70;23.77;;;6.00;99.90;;;;;;6243181;23;20107;-84
2021/12/29 06:04:19;;;;;;;187.02;26.30;;;6.10;99.90;;;;;;6243073;23;20059;-84
2021/12/29 06:06:45;;;;;;;82.22;18.83;;;6.10;99.90;;;;;;6242638;23;20131;-84
2021/12/29 06:09:11;;;;;;;205.60;26.30;;;6.10;99.90;;;;;;6245040;23;20020;-84
2021/12/29 06:11:38;;;;;;;279.85;34.67;;;6.00;99.90;;;;;;6243230;23;20028;-83
2021/12/29 06:14:04;;;;;;;105.20;20.83;;;6.00;99.90;;;;;;6243094;23;20452;-84
2021/12/29 06:16:30;;;;;;;253.18;30.70;;;6.00;99.90;;;;;;6217112;23;20047;-84
2021/12/29 06:18:56;;;;;;;235.70;28.45;;;6.00;99.90;;;;;;6243128;23;20035;-84
2021/12/29 06:21:22;;;;;;;311.15;36.47;;;6.00;99.90;;;;;;6243234;23;20023;-84
2021/12/29 06:23:48;;;;;;;219.88;29.35;;;5.90;99.90;;;;;;6218718;23;20095;-84
2021/12/29 06:26:14;;;;;;;225.65;28.60;;;5.90;99.90;;;;;;6244661;23;20027;-85
2021/12/29 06:28:41;;;;;;;269.73;33.85;;;5.90;99.90;;;;;;6244799;23;20035;-85
2021/12/29 06:31:07;;;;;;;276.80;37.35;;;5.90;99.90;;;;;;6220736;23;20055;-84
2021/12/29 06:33:37;;;;;;;233.40;36.00;;;5.90;99.90;;;;;;6250667;23;20016;-85
2021/12/29 06:36:03;;;;;;;145.05;27.38;;;5.90;99.90;;;;;;6250829;23;20027;-85
2021/12/29 06:38:28;;;;;;;179.68;32.42;;;6.00;99.90;;;;;;6224408;23;20051;-85
2021/12/29 06:40:54;;;;;;;145.77;32.50;;;6.00;99.90;;;;;;6226205;23;20020;-85
2021/12/29 06:43:20;;;;;;;257.48;39.22;;;6.00;99.90;;;;;;6249505;23;20032;-83
2021/12/29 06:45:46;;;;;;;332.40;44.78;;;6.00;99.90;;;;;;6247424;23;20027;-83
2021/12/29 06:48:12;;;;;;;284.65;42.38;;;6.00;99.90;;;;;;6245278;23;20024;-84
2021/12/29 06:50:38;;;;;;;354.75;50.17;;;6.10;99.90;;;;;;6245784;23;20024;-84
2021/12/29 06:53:04;;;;;;;459.88;58.72;;;6.10;99.90;;;;;;6244171;23;20028;-84
2021/12/29 06:55:30;;;;;;;466.55;56.10;;;6.10;99.90;;;;;;6244552;23;20099;-84
2021/12/29 06:57:56;;;;;;;499.05;53.42;;;6.10;99.90;;;;;;6244668;23;20360;-84
2021/12/29 07:00:22;;;;;;;455.92;48.80;;;6.10;99.90;;;;;;6243822;23;20020;-84
2021/12/29 07:02:54;;;;;;;427.73;47.58;;;6.00;99.90;;;;;;6219499;23;20031;-84
2021/12/29 07:05:20;;;;;;;393.65;48.13;;;6.00;99.90;;;;;;6219297;23;20035;-84
2021/12/29 07:07:49;;;;;;;468.10;51.90;;;6.00;99.90;;;;;;6217918;23;20024;-83
2021/12/29 07:10:15;;;;;;;360.67;45.60;;;6.00;99.90;;;;;;6244399;23;20035;-84
2021/12/29 07:12:41;;;;;;;337.25;40.08;;;5.90;99.90;;;;;;6244221;23;20020;-84
2021/12/29 07:15:07;;;;;;;458.27;52.47;;;5.90;99.90;;;;;;6218574;23;20073;-84
2021/12/29 07:17:34;;;;;;;444.33;52.17;;;5.90;99.90;;;;;;6219576;23;20456;-84
2021/12/29 07:19:59;;;;;;;515.00;57.65;;;5.90;99.90;;;;;;6244209;23;20024;-84
2021/12/29 07:22:25;;;;;;;392.60;45.28;;;5.90;99.90;;;;;;6244802;23;20540;-83
2021/12/29 07:24:51;;;;;;;414.77;46.75;;;5.90;99.90;;;;;;6244136;23;20020;-84
2021/12/29 07:27:17;;;;;;;449.52;49.58;;;5.90;99.90;;;;;;6243396;23;20020;-84
2021/12/29 07:29:43;;;;;;;375.42;45.90;;;5.90;99.90;;;;;;6244379;23;20024;-84
2021/12/29 07:32:09;;;;;;;454.75;53.80;;;5.90;99.90;;;;;;6244285;23;20022;-83
2021/12/29 07:34:35;;;;;;;400.35;47.70;;;5.90;99.90;;;;;;6219272;23;20023;-84
2021/12/29 07:37:02;;;;;;;411.73;51.45;;;5.90;99.90;;;;;;6241737;23;20024;-84
2021/12/29 07:39:27;;;;;;;413.10;47.83;;;6.00;99.90;;;;;;6246853;22;20051;-84
2021/12/29 07:41:54;;;;;;;415.02;45.08;;;6.00;99.90;;;;;;6244760;23;20028;-84
2021/12/29 07:44:20;;;;;;;338.92;36.40;;;6.00;99.90;;;;;;6244725;22;20055;-84
2021/12/29 07:46:51;;;;;;;441.77;47.10;;;6.00;99.90;;;;;;6219792;23;20355;-84
2021/12/29 07:49:17;;;;;;;325.80;36.20;;;6.00;99.90;;;;;;6219722;23;20094;-84
2021/12/29 07:51:44;;;;;;;447.70;43.80;;;6.00;99.90;;;;;;6244862;23;20032;-84
2021/12/29 07:54:14;;;;;;;288.00;33.28;;;6.00;99.90;;;;;;6218881;23;20020;-83
2021/12/29 07:56:47;;;;;;;306.10;32.22;;;6.00;99.90;;;;;;6245206;23;20554;-83
2021/12/29 07:59:14;;;;;;;344.23;36.97;;;6.00;99.90;;;;;;6244499;23;20016;-83
2021/12/29 08:01:41;;;;;;;404.73;39.47;;;6.00;99.90;;;;;;6244416;23;20024;-84
2021/12/29 08:04:10;;;;;;;386.70;36.80;;;6.00;99.90;;;;;;6244341;23;20023;-84
2021/12/29 08:06:36;;;;;;;398.42;37.35;;;6.00;99.90;;;;;;6244578;23;20107;-83
2021/12/29 08:09:03;;;;;;;399.27;39.30;;;6.10;99.90;;;;;;6250163;23;20348;-83
2021/12/29 08:11:28;;;;;;;392.63;38.45;;;6.10;99.90;;;;;;6222852;23;20448;-84
2021/12/29 08:14:00;;;;;;;371.80;36.95;;;6.10;99.90;;;;;;6244656;23;20110;-85
2021/12/29 08:16:28;;;;;;;430.55;42.17;;;6.10;99.90;;;;;;6243053;23;20028;-83
2021/12/29 08:19:00;;;;;;;355.98;39.83;;;6.10;99.90;;;;;;6194686;23;20024;-83
2021/12/29 08:21:26;;;;;;;459.17;49.53;;;6.10;99.90;;;;;;6245590;23;20082;-84
2021/12/29 08:23:52;;;;;;;403.58;42.35;;;6.20;99.90;;;;;;6244185;23;20024;-84
2021/12/29 08:26:20;;;;;;;380.35;44.28;;;6.20;99.90;;;;;;6244744;23;20016;-84
2021/12/29 08:28:49;;;;;;;419.95;46.47;;;6.20;99.90;;;;;;6244584;23;20493;-83
2021/12/29 08:31:14;;;;;;;449.25;47.53;;;6.20;99.90;;;;;;6243717;23;20024;-84
2021/12/29 08:33:40;;;;;;;421.77;45.30;;;6.30;99.90;;;;;;6244232;23;20047;-84
2021/12/29 08:36:06;;;;;;;416.38;43.92;;;6.30;99.90;;;;;;6246178;23;20027;-84
2021/12/29 08:38:33;;;;;;;410.38;41.15;;;6.20;99.90;;;;;;6243988;23;20023;-84
2021/12/29 08:40:59;;;;;;;426.60;43.00;;;6.20;99.90;;;;;;6218725;23;20086;-84
2021/12/29 08:43:25;;;;;;;444.33;44.28;;;6.20;99.90;;;;;;6244127;23;20020;-84
2021/12/29 08:45:51;;;;;;;361.20;38.90;;;6.20;99.90;;;;;;6218639;23;20024;-84
2021/12/29 08:48:17;;;;;;;389.00;41.17;;;6.20;99.90;;;;;;6243992;23;20101;-84
2021/12/29 08:50:43;;;;;;;394.17;39.28;;;6.20;99.90;;;;;;6218402;23;20463;-84
2021/12/29 08:53:10;;;;;;;384.20;40.92;;;6.20;99.90;;;;;;6243625;23;20463;-84
2021/12/29 08:55:44;;;;;;;408.33;41.88;;;6.20;99.90;;;;;;6218606;23;20030;-84
2021/12/29 08:58:17;;;;;;;381.20;39.00;;;6.20;99.90;;;;;;6217532;23;20104;-84
2021/12/29 09:00:47;;;;;;;413.05;41.28;;;6.30;99.90;;;;;;6243009;23;20020;-84
2021/12/29 09:03:13;;;;;;;429.58;42.17;;;6.30;99.90;;;;;;6243902;23;20054;-84
2021/12/29 09:05:38;;;;;;;411.05;38.55;;;6.30;99.90;;;;;;6218558;23;20020;-84
2021/12/29 09:08:04;;;;;;;436.20;44.22;;;6.30;99.90;;;;;;6244242;23;20039;-84
2021/12/29 09:10:30;;;;;;;372.92;37.70;;;6.30;99.90;;;;;;6218306;23;20035;-84
2021/12/29 09:12:56;;;;;;;360.52;35.42;;;6.30;99.90;;;;;;6243427;23;20024;-84
2021/12/29 09:15:24;;;;;;;366.98;35.95;;;6.40;99.90;;;;;;6246628;23;20020;-84
2021/12/29 09:17:49;;;;;;;327.17;34.53;;;6.40;99.90;;;;;;6247027;23;20471;-85
2021/12/29 09:20:29;;;;;;;329.83;37.50;;;6.40;99.90;;;;;;6246335;22;20024;-84
2021/12/29 09:23:07;;;;;;;314.95;34.22;;;6.40;99.90;;;;;;6218367;23;20270;-85
2021/12/29 09:25:34;;;;;;;318.88;31.33;;;6.50;99.90;;;;;;6217749;23;20021;-84
2021/12/29 09:28:00;;;;;;;345.65;35.65;;;6.50;99.90;;;;;;6242531;23;20028;-84
2021/12/29 09:30:28;;;;;;;295.63;33.70;;;6.50;99.90;;;;;;6243990;23;20028;-84
2021/12/29 09:32:55;;;;;;;217.38;25.52;;;6.60;99.90;;;;;;6243831;23;20091;-84
2021/12/29 09:35:22;;;;;;;254.68;29.98;;;6.60;99.90;;;;;;6243167;23;20020;-84
2021/12/29 09:37:50;;;;;;;283.27;32.78;;;6.60;99.90;;;;;;6218787;23;20024;-85
2021/12/29 09:40:20;;;;;;;172.20;26.25;;;6.60;99.90;;;;;;6242729;23;20348;-84
2021/12/29 09:42:46;;;;;;;181.52;29.23;;;6.70;99.90;;;;;;6242467;23;20527;-83
2021/12/29 09:45:13;;;;;;;99.95;21.88;;;6.70;99.90;;;;;;6243260;23;20055;-83
2021/12/29 09:47:39;;;;;;;112.35;22.55;;;6.80;99.90;;;;;;6216676;23;20024;-83
2021/12/29 09:50:10;;;;;;;147.45;26.88;;;6.80;99.90;;;;;;6217495;23;20060;-84
2021/12/29 09:52:37;;;;;;;207.18;29.65;;;6.80;99.90;;;;;;6243495;23;20086;-83
2021/12/29 09:55:09;;;;;;;97.13;22.08;;;6.90;99.90;;;;;;6243935;23;20099;-84
2021/12/29 09:57:37;;;;;;;84.93;20.80;;;6.90;99.90;;;;;;6243853;23;20452;-83
2021/12/29 10:00:09;;;;;;;79.60;20.85;;;6.90;99.90;;;;;;6218071;23;20024;-83
2021/12/29 10:02:35;;;;;;;87.15;21.80;;;7.00;99.90;;;;;;6219265;23;20024;-84
2021/12/29 10:05:03;;;;;;;68.63;17.35;;;7.00;99.90;;;;;;6244265;23;20016;-83
2021/12/29 10:07:29;;;;;;;73.90;18.63;;;7.00;99.90;;;;;;6244229;23;20020;-83
2021/12/29 10:09:55;;;;;;;66.90;18.45;;;7.00;99.90;;;;;;6242763;22;20103;-82
2021/12/29 10:12:27;;;;;;;67.18;18.05;;;7.00;99.90;;;;;;6219740;23;20020;-83
2021/12/29 10:14:59;;;;;;;58.05;16.95;;;7.00;99.90;;;;;;6217718;23;20543;-83
2021/12/29 10:17:29;;;;;;;58.47;17.23;;;7.10;99.90;;;;;;6245532;23;20527;-84
2021/12/29 10:20:17;;;;;;;52.10;16.83;;;7.10;99.90;;;;;;6251553;23;20339;-86
2021/12/29 10:22:55;;;;;;;52.15;16.60;;;7.20;99.90;;;;;;6218477;23;20052;-83
2021/12/29 10:25:24;;;;;;;49.25;16.23;;;7.20;99.90;;;;;;6219850;23;20511;-84
2021/12/29 10:27:52;;;;;;;52.25;15.07;;;7.20;99.90;;;;;;6218230;23;20032;-83
2021/12/29 10:30:24;;;;;;;52.53;16.42;;;7.20;99.90;;;;;;6245970;23;20449;-84
2021/12/29 10:32:52;;;;;;;45.08;16.88;;;7.30;99.90;;;;;;6220124;23;20372;-84
2021/12/29 10:35:27;;;;;;;40.03;14.07;;;7.20;99.90;;;;;;6245704;23;20035;-85
2021/12/29 10:37:57;;;;;;;51.65;14.98;;;7.30;99.90;;;;;;6220009;23;20024;-84
2021/12/29 10:40:31;;;;;;;38.38;14.15;;;7.30;99.90;;;;;;6245690;23;20012;-84
2021/12/29 10:43:00;;;;;;;41.65;14.48;;;7.30;99.90;;;;;;6245988;23;20027;-83
2021/12/29 10:45:44;;;;;;;31.38;13.90;;;7.20;99.90;;;;;;6245930;23;20051;-83
2021/12/29 10:48:23;;;;;;;;;;;7.20;99.90;;;;;;6244247;22;20028;-84
2021/12/29 10:51:05;;;;;;;40.10;12.98;;;7.20;99.90;;;;;;6244902;23;20323;-83
2021/12/29 10:53:35;;;;;;;39.13;13.32;;;7.20;99.90;;;;;;6245719;23;20051;-84
2021/12/29 10:56:02;;;;;;;34.00;12.20;;;7.20;99.90;;;;;;6245601;23;20017;-84
2021/12/29 10:58:32;;;;;;;37.10;10.93;;;7.20;99.90;;;;;;6219433;23;20024;-83
2021/12/29 11:01:03;;;;;;;38.95;11.27;;;7.30;99.90;;;;;;6244428;23;20016;-84
2021/12/29 11:03:31;;;;;;;39.58;12.40;;;7.20;99.90;;;;;;6246152;23;20024;-84
2021/12/29 11:06:00;;;;;;;37.85;11.82;;;7.30;99.90;;;;;;6244888;23;20347;-84
2021/12/29 11:08:31;;;;;;;31.40;11.05;;;7.30;99.90;;;;;;6245946;23;20120;-84
2021/12/29 11:11:03;;;;;;;40.10;13.05;;;7.20;99.90;;;;;;6245410;23;20025;-83
2021/12/29 11:13:30;;;;;;;38.08;11.75;;;7.30;99.90;;;;;;6221760;23;20483;-83
2021/12/29 11:15:59;;;;;;;35.58;11.30;;;7.30;99.90;;;;;;6224262;23;20024;-83
2021/12/29 11:18:26;;;;;;;33.13;10.75;;;7.20;99.90;;;;;;6247570;23;20031;-83
2021/12/29 11:20:57;;;;;;;31.52;11.02;;;7.20;99.90;;;;;;6249220;23;20039;-84
2021/12/29 11:23:24;;;;;;;36.25;11.00;;;7.20;99.90;;;;;;6246141;23;20056;-84
2021/12/29 11:25:51;;;;;;;34.05;9.98;;;7.30;99.90;;;;;;6246206;23;20060;-83
2021/12/29 11:28:26;;;;;;;31.15;10.75;;;7.30;99.90;;;;;;6245542;23;20020;-84
2021/12/29 11:30:53;;;;;;;29.15;11.55;;;7.30;99.90;;;;;;6244995;23;20095;-84
2021/12/29 11:33:19;;;;;;;35.42;12.35;;;7.30;99.90;;;;;;6245334;23;20020;-84
2021/12/29 11:35:49;;;;;;;36.17;11.30;;;7.30;99.90;;;;;;6246517;23;20051;-84
2021/12/29 11:38:16;;;;;;;30.38;11.02;;;7.30;99.90;;;;;;6219220;23;20016;-84
2021/12/29 11:40:46;;;;;;;35.00;10.90;;;7.30;99.90;;;;;;6219847;23;20352;-84
2021/12/29 11:43:17;;;;;;;33.47;10.50;;;7.30;99.90;;;;;;6244835;23;20413;-84
2021/12/29 11:45:46;;;;;;;37.22;10.95;;;7.30;99.90;;;;;;6244971;23;20020;-84
2021/12/29 11:48:13;;;;;;;41.03;10.93;;;7.30;99.90;;;;;;6219300;23;20028;-84
2021/12/29 11:50:56;;;;;;;27.65;9.82;;;7.30;99.90;;;;;;6219424;23;20019;-83
2021/12/29 11:53:36;;;;;;;39.67;9.57;;;7.30;99.90;;;;;;6244450;23;20356;-83
2021/12/29 11:56:14;;;;;;;32.38;9.88;;;7.30;99.90;;;;;;6244596;23;20016;-84
2021/12/29 11:58:42;;;;;;;30.85;8.60;;;7.30;99.90;;;;;;6244884;23;20111;-83
2021/12/29 12:01:24;;;;;;;29.45;8.55;;;7.30;99.90;;;;;;6244268;23;20023;-83
2021/12/29 12:04:00;;;;;;;40.72;11.27;;;7.30;99.90;;;;;;6247026;23;20035;-83
2021/12/29 12:06:38;;;;;;;30.83;9.60;;;7.30;99.90;;;;;;6245211;23;20066;-82
2021/12/29 12:09:04;;;;;;;32.35;9.10;;;7.30;99.90;;;;;;6243973;23;20027;-83
2021/12/29 12:11:31;;;;;;;28.23;9.63;;;7.30;99.90;;;;;;6218892;23;20472;-84
2021/12/29 12:13:57;;;;;;;32.05;9.38;;;7.30;99.90;;;;;;6218360;23;20432;-85
2021/12/29 12:16:25;;;;;;;29.15;9.20;;;7.30;99.90;;;;;;6243854;23;20016;-84
2021/12/29 12:18:57;;;;;;;24.20;8.65;;;7.30;99.90;;;;;;6183690;23;20089;-85
2021/12/29 12:21:29;;;;;;;40.60;11.70;;;7.30;99.90;;;;;;6244499;23;20395;-83
2021/12/29 12:24:09;;;;;;;24.42;8.70;;;7.40;99.90;;;;;;6246662;22;20024;-86
2021/12/29 12:26:59;;;;;;;32.88;8.38;;;7.40;99.90;;;;;;6245833;23;20344;-86
2021/12/29 12:29:31;;;;;;;29.48;10.02;;;7.40;99.90;;;;;;6243541;23;20261;-86
2021/12/29 12:32:04;;;;;;;30.88;9.80;;;7.40;99.90;;;;;;6244377;23;20020;-80
2021/12/29 12:34:46;;;;;;;22.55;9.38;;;7.40;99.90;;;;;;6244085;23;20097;-81
2021/12/29 12:37:18;;;;;;;31.33;9.38;;;7.40;99.90;;;;;;6244303;23;20024;-79
2021/12/29 12:40:08;;;;;;;35.88;9.70;;;7.30;99.90;;;;;;6217773;23;20023;-85
2021/12/29 12:42:34;;;;;;;30.30;9.90;;;7.30;99.90;;;;;;6245243;23;20027;-75
2021/12/29 12:45:03;;;;;;;28.48;9.18;;;7.30;99.90;;;;;;6244851;23;20024;-84